KVLD

Valdosta Regional Airport

Valdosta, Georgia, USA
KVLD 181134Z 1812/1912 02006KT P6SM FEW040 FM181400 06007KT P6SM SCT050 FM190200 00000KT P6SM BKN040
Issued Valid From Valid To
Oct-18 @ 11:34 UTC
(52 minutes ago)
Oct-18 @ 12:00 UTC
(26 minutes ago)
Oct-19 @ 12:00 UTC
(in 24 hours)
Oct-18 @ 12:00 to Oct-18 @ 14:00
KVLD 181134Z 1812/1912 02006KT P6SM FEW040
Wind Visibility Clouds
20° at 6 knots Greater than 6 miles
  • Few at 4,000' AGL
From Oct-18 @ 14:00 to Oct-19 @ 02:00
FM181400 06007KT P6SM SCT050
Wind Visibility Clouds
60° at 7 knots Greater than 6 miles
  • Scattered at 5,000' AGL
From Oct-19 @ 02:00 to Oct-19 @ 12:00
FM190200 00000KT P6SM BKN040
Visibility Clouds
Greater than 6 miles
  • Broken at 4,000' AGL
KVLD 181134Z 1812/1912 02006KT P6SM FEW040 FM181400 06007KT P6SM SCT050 FM190200 00000KT P6SM BKN040
Issued Oct-18 @ 11:34 UTC
(52 minutes ago)
Valid From Oct-18 @ 12:00 UTC
(26 minutes ago)
Valid To Oct-19 @ 12:00 UTC
(in 24 hours)
Oct-18 @ 12:00 - Oct-18 @ 14:00
Wind Visibility
20° at 6 knots Greater than 6 miles
Clouds
  • Few at 4,000' AGL
From Oct-18 @ 14:00 - Oct-19 @ 02:00
Wind Visibility
60° at 7 knots Greater than 6 miles
Clouds
  • Scattered at 5,000' AGL
From Oct-19 @ 02:00 - Oct-19 @ 12:00
Clouds
  • Broken at 4,000' AGL